createdAt,value
2018-12-11T00:00:42.465Z,19.00
2018-12-11T00:03:17.191Z,19.00
2018-12-11T00:05:46.717Z,19.00
2018-12-11T00:08:16.247Z,19.00
2018-12-11T00:10:47.993Z,19.00
2018-12-11T00:13:19.140Z,19.00
2018-12-11T00:15:48.692Z,19.00
2018-12-11T00:18:21.696Z,19.00
2018-12-11T00:20:51.168Z,19.00
2018-12-11T00:23:23.208Z,19.00
2018-12-11T00:25:52.787Z,19.00
2018-12-11T00:28:23.679Z,19.00
2018-12-11T00:30:55.640Z,19.00
2018-12-11T00:33:25.243Z,18.90
2018-12-11T00:35:56.373Z,19.00
2018-12-11T00:38:44.534Z,19.00
2018-12-11T00:41:19.433Z,19.00
2018-12-11T00:43:49.069Z,19.00
2018-12-11T00:46:18.602Z,19.00
2018-12-11T00:48:48.862Z,18.90
2018-12-11T00:51:18.658Z,19.00
2018-12-11T00:53:48.221Z,18.90
2018-12-11T00:56:22.763Z,18.90
2018-12-11T00:58:52.179Z,18.90
2018-12-11T01:01:21.872Z,18.90
2018-12-11T01:03:54.632Z,18.90
2018-12-11T01:06:32.282Z,18.90
2018-12-11T01:09:01.776Z,18.90
2018-12-11T01:11:31.925Z,18.90
2018-12-11T01:14:01.689Z,18.90
2018-12-11T01:16:36.775Z,18.90
2018-12-11T01:19:11.611Z,18.90
2018-12-11T01:21:41.161Z,18.90
2018-12-11T01:24:10.573Z,18.90
2018-12-11T01:26:46.157Z,19.00
2018-12-11T01:29:26.718Z,18.90
2018-12-11T01:32:02.452Z,18.90
2018-12-11T01:34:36.407Z,18.90
2018-12-11T01:37:09.798Z,18.90
2018-12-11T01:42:19.413Z,18.90
2018-12-11T01:44:49.556Z,18.90
2018-12-11T01:47:21.457Z,18.90
2018-12-11T01:49:51.890Z,19.00
2018-12-11T01:52:27.840Z,18.90
2018-12-11T01:55:01.472Z,18.90
2018-12-11T01:57:32.493Z,18.90
2018-12-11T02:00:02.429Z,18.90
2018-12-11T02:02:33.029Z,18.80
2018-12-11T02:05:02.559Z,18.90
2018-12-11T02:07:32.247Z,18.90
2018-12-11T02:10:08.324Z,18.90
2018-12-11T02:12:38.249Z,18.90
2018-12-11T02:15:08.085Z,18.90
2018-12-11T02:17:43.949Z,18.90
2018-12-11T02:20:13.749Z,18.90
2018-12-11T02:22:47.045Z,18.90
2018-12-11T02:25:18.678Z,18.90
2018-12-11T02:27:56.940Z,19.00
2018-12-11T02:30:29.854Z,19.00
2018-12-11T02:33:00.960Z,19.00
2018-12-11T02:35:30.476Z,19.00
2018-12-11T02:38:01.410Z,19.00
2018-12-11T02:40:36.116Z,19.00
2018-12-11T02:43:05.826Z,19.00
2018-12-11T02:45:35.439Z,19.00
2018-12-11T02:48:05.101Z,19.00
2018-12-11T02:50:40.529Z,19.00
2018-12-11T02:55:44.484Z,19.00
2018-12-11T02:58:16.442Z,19.00
2018-12-11T03:00:46.057Z,19.00
2018-12-11T03:03:18.977Z,19.00
2018-12-11T03:05:48.765Z,19.00
2018-12-11T03:08:18.452Z,18.90
2018-12-11T03:10:48.063Z,18.90
2018-12-11T03:13:20.707Z,18.90
2018-12-11T03:15:56.350Z,18.90
2018-12-11T03:18:25.901Z,18.90
2018-12-11T03:20:55.624Z,18.90
2018-12-11T03:23:25.172Z,18.90
2018-12-11T03:26:01.118Z,18.90
2018-12-11T03:28:32.339Z,18.90
2018-12-11T03:36:32.552Z,18.90
2018-12-11T03:39:02.329Z,18.90
2018-12-11T03:41:36.895Z,18.90
2018-12-11T03:44:06.435Z,18.90
2018-12-11T03:46:42.736Z,18.90
2018-12-11T03:49:12.226Z,18.90
2018-12-11T03:51:46.502Z,18.90
2018-12-11T03:54:16.010Z,19.00
2018-12-11T03:56:45.506Z,19.00
2018-12-11T03:59:16.148Z,19.00
2018-12-11T04:04:20.174Z,19.00
2018-12-11T04:06:49.736Z,19.00
2018-12-11T04:09:19.257Z,19.10
2018-12-11T04:11:55.732Z,19.00
2018-12-11T04:14:30.673Z,19.10
2018-12-11T04:17:00.417Z,19.10
2018-12-11T04:19:32.867Z,19.10
2018-12-11T04:22:04.518Z,19.10
2018-12-11T04:24:39.132Z,19.10
2018-12-11T04:27:08.946Z,19.20
2018-12-11T04:29:39.414Z,19.20
2018-12-11T04:32:08.804Z,19.20
2018-12-11T04:34:38.398Z,19.20
2018-12-11T04:37:07.928Z,19.20
2018-12-11T04:39:37.364Z,19.20
2018-12-11T04:42:11.024Z,19.20
2018-12-11T04:44:46.669Z,19.20
2018-12-11T04:47:16.701Z,19.20
2018-12-11T04:49:47.905Z,19.20
2018-12-11T04:52:22.649Z,19.20
2018-12-11T04:54:52.278Z,19.20
2018-12-11T04:57:28.817Z,19.20
2018-12-11T05:00:05.563Z,19.20
2018-12-11T05:02:35.211Z,19.20
2018-12-11T05:05:06.905Z,19.30
2018-12-11T05:07:42.623Z,19.20
2018-12-11T05:10:12.228Z,19.20
2018-12-11T05:12:42.822Z,19.20
2018-12-11T05:15:12.529Z,19.30
2018-12-11T05:17:42.231Z,19.20
2018-12-11T05:20:11.702Z,19.20
2018-12-11T05:22:45.704Z,19.20
2018-12-11T05:25:15.407Z,19.10
2018-12-11T05:27:45.774Z,19.10
2018-12-11T05:30:15.778Z,19.20
2018-12-11T05:32:46.316Z,19.10
2018-12-11T05:35:16.978Z,19.10
2018-12-11T05:37:46.936Z,19.10
2018-12-11T05:40:19.473Z,19.10
2018-12-11T05:42:49.017Z,19.10
2018-12-11T05:45:18.727Z,19.00
2018-12-11T05:47:49.202Z,19.00
2018-12-11T05:50:19.437Z,19.10
2018-12-11T05:52:49.534Z,19.10
2018-12-11T05:55:20.891Z,19.10
2018-12-11T05:57:50.597Z,19.10
2018-12-11T06:00:20.043Z,19.10
2018-12-11T06:02:49.710Z,19.10
2018-12-11T06:05:19.412Z,19.10
2018-12-11T06:07:49.122Z,19.10
2018-12-11T06:10:19.019Z,19.20
2018-12-11T06:12:49.033Z,19.20
2018-12-11T06:15:20.049Z,19.30
2018-12-11T06:17:49.850Z,19.30
2018-12-11T06:20:36.871Z,19.30
2018-12-11T06:23:08.100Z,19.30
2018-12-11T06:29:09.940Z,19.20
2018-12-11T06:31:47.880Z,19.20
2018-12-11T06:34:17.522Z,19.10
2018-12-11T06:36:47.293Z,19.10
2018-12-11T06:39:17.404Z,19.10
2018-12-11T06:41:48.765Z,19.20
2018-12-11T06:44:18.292Z,19.20
2018-12-11T06:46:52.466Z,19.30
2018-12-11T06:49:27.282Z,19.30
2018-12-11T06:51:57.884Z,19.30
2018-12-11T06:54:27.330Z,19.40
2018-12-11T06:56:56.808Z,19.30
2018-12-11T06:59:26.337Z,19.40
2018-12-11T07:01:55.819Z,19.50
2018-12-11T07:04:25.364Z,19.60
2018-12-11T07:06:54.839Z,19.60
2018-12-11T07:09:24.386Z,19.60
2018-12-11T07:11:58.419Z,19.60
2018-12-11T07:14:27.928Z,19.50
2018-12-11T07:16:57.787Z,19.50
2018-12-11T07:19:27.289Z,19.50
2018-12-11T07:21:57.277Z,19.40
2018-12-11T07:24:26.956Z,19.40
2018-12-11T07:27:01.167Z,19.40
2018-12-11T07:29:30.837Z,19.30
2018-12-11T07:32:00.999Z,19.40
2018-12-11T07:34:30.746Z,19.40
2018-12-11T07:37:00.368Z,19.50
2018-12-11T07:39:31.503Z,19.60
2018-12-11T07:42:04.049Z,19.50
2018-12-11T07:44:33.549Z,19.50
2018-12-11T07:47:03.033Z,19.50
2018-12-11T07:49:33.777Z,19.40
2018-12-11T07:52:03.640Z,19.40
2018-12-11T07:54:33.376Z,19.40
2018-12-11T07:57:03.083Z,19.30
2018-12-11T07:59:36.288Z,19.30
2018-12-11T08:02:06.260Z,19.30
2018-12-11T08:04:35.765Z,19.30
2018-12-11T08:07:05.333Z,19.30
2018-12-11T08:09:34.987Z,19.30
2018-12-11T08:12:08.324Z,19.30
2018-12-11T08:14:36.256Z,19.30
2018-12-11T08:17:05.924Z,19.20
2018-12-11T08:19:35.334Z,19.20
2018-12-11T08:22:06.157Z,19.20
2018-12-11T08:24:36.529Z,19.20
2018-12-11T08:28:36.112Z,19.20
2018-12-11T08:31:08.085Z,19.30
2018-12-11T08:33:37.571Z,19.30
2018-12-11T08:36:07.467Z,19.30
2018-12-11T08:38:41.504Z,19.20
2018-12-11T08:41:11.702Z,19.30
2018-12-11T08:43:41.365Z,19.40
2018-12-11T08:47:40.361Z,19.40
2018-12-11T08:50:09.954Z,19.50
2018-12-11T08:52:42.135Z,19.50
2018-12-11T08:55:11.864Z,19.40
2018-12-11T08:57:41.599Z,19.50
2018-12-11T09:00:11.280Z,19.50
2018-12-11T09:02:42.848Z,19.40
2018-12-11T09:05:12.599Z,19.50
2018-12-11T09:07:42.146Z,19.50
2018-12-11T09:10:12.185Z,19.50
2018-12-11T09:12:41.915Z,19.50
2018-12-11T09:15:11.330Z,19.50
2018-12-11T09:17:40.882Z,19.40
2018-12-11T09:20:13.968Z,19.30
2018-12-11T09:22:43.535Z,19.40
2018-12-11T09:25:12.966Z,19.40
2018-12-11T09:27:42.550Z,19.40
2018-12-11T09:30:16.757Z,19.40
2018-12-11T09:32:46.165Z,19.40
2018-12-11T09:35:18.199Z,19.30
2018-12-11T09:37:47.513Z,19.30
2018-12-11T09:40:16.936Z,19.30
2018-12-11T09:42:46.448Z,19.30
2018-12-11T09:45:16.019Z,19.30
2018-12-11T09:47:45.515Z,19.20
2018-12-11T09:50:16.488Z,19.20
2018-12-11T09:52:46.574Z,19.30
2018-12-11T09:55:16.080Z,19.30
2018-12-11T09:57:45.796Z,19.20
2018-12-11T10:00:15.350Z,19.20
2018-12-11T10:02:45.029Z,19.20
2018-12-11T10:05:14.668Z,19.20
2018-12-11T10:07:44.219Z,19.20
2018-12-11T10:10:14.135Z,19.30
2018-12-11T10:12:43.649Z,19.20
2018-12-11T10:15:13.311Z,19.20
2018-12-11T10:17:42.681Z,19.20
2018-12-11T10:20:16.268Z,19.20
2018-12-11T10:22:45.799Z,19.30
2018-12-11T10:25:15.462Z,19.20
2018-12-11T10:27:47.703Z,19.30
2018-12-11T10:30:18.193Z,19.20
2018-12-11T10:32:52.403Z,19.10
2018-12-11T10:35:21.896Z,19.20
2018-12-11T10:37:51.385Z,19.20
2018-12-11T10:40:21.301Z,19.20
2018-12-11T10:42:54.686Z,19.20
2018-12-11T10:45:24.286Z,19.30
2018-12-11T10:47:53.898Z,19.20
2018-12-11T10:50:23.684Z,19.10
2018-12-11T10:52:53.401Z,19.20
2018-12-11T10:55:23.087Z,19.20
2018-12-11T10:57:52.932Z,19.20
2018-12-11T11:00:27.819Z,19.30
2018-12-11T11:03:05.302Z,19.30
2018-12-11T11:05:35.542Z,19.30
2018-12-11T11:08:05.157Z,19.30
2018-12-11T11:10:34.943Z,19.30
2018-12-11T11:13:04.699Z,19.30
2018-12-11T11:15:34.165Z,19.30
2018-12-11T11:18:04.283Z,19.30
2018-12-11T11:20:33.848Z,19.20
2018-12-11T11:23:03.472Z,19.30
2018-12-11T11:25:36.949Z,19.20
2018-12-11T11:28:09.084Z,19.20
2018-12-11T11:30:38.571Z,19.30
2018-12-11T11:33:08.273Z,19.30
2018-12-11T11:35:38.606Z,19.30
2018-12-11T11:38:08.324Z,19.30
2018-12-11T11:40:37.844Z,19.30
2018-12-11T11:43:07.372Z,19.40
2018-12-11T11:45:37.477Z,19.40
2018-12-11T11:48:08.326Z,19.50
2018-12-11T11:50:38.188Z,19.50
2018-12-11T11:53:12.354Z,19.60
2018-12-11T11:55:41.911Z,19.60
2018-12-11T11:58:11.405Z,19.60
2018-12-11T12:00:46.001Z,19.60
2018-12-11T12:03:15.539Z,19.20
2018-12-11T12:05:45.261Z,18.30
2018-12-11T12:08:15.679Z,17.50
2018-12-11T12:10:49.903Z,16.90
2018-12-11T12:13:19.772Z,16.50
2018-12-11T12:15:49.263Z,16.70
2018-12-11T12:18:18.849Z,17.00
2018-12-11T12:20:51.135Z,17.40
2018-12-11T12:23:21.182Z,17.70
2018-12-11T12:25:51.869Z,17.90
2018-12-11T12:28:21.855Z,18.10
2018-12-11T12:30:52.015Z,18.20
2018-12-11T12:33:21.544Z,17.60
2018-12-11T12:35:51.085Z,17.60
2018-12-11T12:38:20.575Z,17.70
2018-12-11T12:40:49.998Z,17.50
2018-12-11T12:43:19.535Z,17.60
2018-12-11T12:45:50.495Z,17.80
2018-12-11T12:48:23.801Z,18.00
2018-12-11T12:50:53.405Z,18.20
2018-12-11T12:53:23.193Z,18.30
2018-12-11T12:55:52.591Z,18.30
2018-12-11T12:58:22.316Z,18.40
2018-12-11T13:00:52.188Z,18.40
2018-12-11T13:03:21.882Z,18.40
2018-12-11T13:05:51.412Z,18.20
2018-12-11T13:08:23.226Z,18.30
2018-12-11T13:10:52.762Z,18.50
2018-12-11T13:13:22.295Z,18.60
2018-12-11T13:15:51.750Z,18.60
2018-12-11T13:18:21.311Z,18.80
2018-12-11T13:20:53.313Z,18.90
2018-12-11T13:23:22.877Z,19.00
2018-12-11T13:25:52.422Z,19.00
2018-12-11T13:28:22.780Z,19.10
2018-12-11T13:30:52.505Z,19.20
2018-12-11T13:33:22.147Z,19.20
2018-12-11T13:35:51.647Z,19.30
2018-12-11T13:38:22.272Z,19.30
2018-12-11T13:40:53.165Z,19.30
2018-12-11T13:43:22.635Z,19.40
2018-12-11T13:45:52.188Z,19.50
2018-12-11T13:48:23.471Z,19.50
2018-12-11T13:50:53.607Z,19.60
2018-12-11T13:54:52.425Z,19.50
2018-12-11T13:57:22.080Z,19.60
2018-12-11T13:59:51.547Z,19.60
2018-12-11T14:02:21.174Z,19.60
2018-12-11T14:04:52.948Z,19.60
2018-12-11T14:07:22.337Z,19.70
2018-12-11T14:09:52.935Z,19.70
2018-12-11T14:12:26.529Z,19.70
2018-12-11T14:14:55.929Z,19.70
2018-12-11T14:17:25.443Z,19.70
2018-12-11T14:20:02.005Z,19.70
2018-12-11T14:22:31.685Z,18.70
2018-12-11T14:25:01.641Z,17.90
2018-12-11T14:27:31.268Z,17.80
2018-12-11T14:30:01.292Z,18.00
2018-12-11T14:32:31.064Z,18.20
2018-12-11T14:35:00.793Z,18.40
2018-12-11T14:37:30.280Z,18.60
2018-12-11T14:39:59.695Z,18.80
2018-12-11T14:42:29.525Z,19.00
2018-12-11T14:44:59.012Z,19.10
2018-12-11T14:47:28.532Z,19.20
2018-12-11T14:49:58.259Z,19.30
2018-12-11T14:52:28.125Z,19.40
2018-12-11T14:54:57.888Z,19.40
2018-12-11T14:57:31.165Z,19.40
2018-12-11T14:59:58.954Z,19.50
2018-12-11T15:02:31.346Z,19.60
2018-12-11T15:05:01.136Z,19.60
2018-12-11T15:07:30.835Z,19.60
2018-12-11T15:10:02.959Z,19.70
2018-12-11T15:12:32.629Z,19.60
2018-12-11T15:15:02.109Z,19.70
2018-12-11T15:17:31.774Z,19.70
2018-12-11T15:20:02.360Z,19.70
2018-12-11T15:22:32.280Z,19.70
2018-12-11T15:25:01.770Z,19.70
2018-12-11T15:27:33.165Z,19.70
2018-12-11T15:30:02.928Z,19.70
2018-12-11T15:32:32.516Z,19.70
2018-12-11T15:35:02.434Z,19.70
2018-12-11T15:37:31.913Z,19.70
2018-12-11T15:40:01.771Z,19.80
2018-12-11T15:42:31.370Z,19.70
2018-12-11T15:45:00.885Z,19.80
2018-12-11T15:47:30.420Z,19.80
2018-12-11T15:49:59.940Z,19.70
2018-12-11T15:52:29.443Z,19.80
2018-12-11T15:54:58.964Z,19.80
2018-12-11T15:57:29.185Z,19.80
2018-12-11T16:00:00.694Z,19.80
2018-12-11T16:02:36.466Z,19.80
2018-12-11T16:05:06.353Z,19.80
2018-12-11T16:07:37.145Z,19.80
2018-12-11T16:10:07.879Z,19.80
2018-12-11T16:12:37.338Z,19.80
2018-12-11T16:15:10.375Z,19.80
2018-12-11T16:17:39.766Z,19.80
2018-12-11T16:20:09.355Z,19.80
2018-12-11T16:22:38.853Z,19.80
2018-12-11T16:25:10.298Z,19.80
2018-12-11T16:27:40.934Z,19.80
2018-12-11T16:30:10.663Z,19.80
2018-12-11T16:32:40.846Z,19.80
2018-12-11T16:35:11.603Z,19.80
2018-12-11T16:37:41.458Z,19.80
2018-12-11T16:40:28.423Z,19.80
2018-12-11T16:43:01.872Z,19.20
2018-12-11T16:45:32.812Z,19.10
2018-12-11T16:48:02.366Z,19.10
2018-12-11T16:50:33.105Z,19.20
2018-12-11T16:53:02.589Z,19.40
2018-12-11T16:55:32.332Z,19.40
2018-12-11T16:58:08.085Z,19.60
2018-12-11T17:00:37.784Z,19.60
2018-12-11T17:03:07.343Z,19.70
2018-12-11T17:05:36.991Z,19.70
2018-12-11T17:08:06.613Z,19.80
2018-12-11T17:10:36.168Z,19.80
2018-12-11T17:13:09.397Z,19.80
2018-12-11T17:15:39.154Z,19.80
2018-12-11T17:18:09.089Z,19.90
2018-12-11T17:20:39.449Z,19.90
2018-12-11T17:23:13.577Z,19.90
2018-12-11T17:25:44.368Z,19.90
2018-12-11T17:28:13.884Z,19.90
2018-12-11T17:30:43.366Z,19.90
2018-12-11T17:33:12.846Z,19.90
2018-12-11T17:35:42.455Z,19.90
2018-12-11T17:38:11.982Z,20.00
2018-12-11T17:40:41.672Z,19.90
2018-12-11T17:43:11.064Z,19.90
2018-12-11T17:45:40.690Z,20.00
2018-12-11T17:48:11.871Z,19.90
2018-12-11T17:50:41.432Z,20.00
2018-12-11T17:53:11.115Z,20.00
2018-12-11T17:55:42.860Z,20.00
2018-12-11T17:58:12.853Z,20.00
2018-12-11T18:00:43.163Z,20.00
2018-12-11T18:03:18.848Z,20.00
2018-12-11T18:05:48.556Z,19.90
2018-12-11T18:08:18.627Z,19.80
2018-12-11T18:10:48.274Z,19.80
2018-12-11T18:13:18.788Z,19.80
2018-12-11T18:15:48.287Z,19.70
2018-12-11T18:18:19.744Z,19.80
2018-12-11T18:20:49.278Z,19.80
2018-12-11T18:23:19.250Z,19.80
2018-12-11T18:25:49.024Z,19.90
2018-12-11T18:28:18.631Z,19.90
2018-12-11T18:30:48.377Z,20.00
2018-12-11T18:33:18.007Z,20.00
2018-12-11T18:35:50.292Z,20.00
2018-12-11T18:38:20.128Z,20.00
2018-12-11T18:40:49.723Z,20.00
2018-12-11T18:43:20.822Z,20.00
2018-12-11T18:45:50.276Z,20.00
2018-12-11T18:48:20.624Z,20.00
2018-12-11T18:50:50.584Z,20.00
2018-12-11T18:53:19.937Z,20.00
2018-12-11T18:55:49.440Z,19.90
2018-12-11T18:58:18.942Z,20.00
2018-12-11T19:00:48.685Z,20.00
2018-12-11T19:03:18.145Z,20.00
2018-12-11T19:05:47.775Z,20.00
2018-12-11T19:08:21.847Z,20.00
2018-12-11T19:10:56.038Z,20.10
2018-12-11T19:13:25.578Z,20.10
2018-12-11T19:15:55.884Z,20.10
2018-12-11T19:18:25.752Z,20.10
2018-12-11T19:21:11.840Z,20.10
2018-12-11T19:23:49.729Z,20.10
2018-12-11T19:26:19.499Z,20.10
2018-12-11T19:28:48.920Z,20.10
2018-12-11T19:31:18.398Z,20.10
2018-12-11T19:33:49.129Z,20.10
2018-12-11T19:36:18.688Z,20.10
2018-12-11T19:38:48.145Z,20.10
2018-12-11T19:41:20.212Z,20.20
2018-12-11T19:46:26.416Z,20.20
2018-12-11T19:48:56.212Z,20.20
2018-12-11T19:51:26.313Z,19.00
2018-12-11T19:53:59.698Z,18.70
2018-12-11T19:56:29.455Z,18.80
2018-12-11T19:59:00.437Z,19.00
2018-12-11T20:01:32.645Z,19.20
2018-12-11T20:04:02.910Z,19.30
2018-12-11T20:06:32.682Z,19.50
2018-12-11T20:09:02.413Z,19.60
2018-12-11T20:11:32.116Z,19.70
2018-12-11T20:14:02.846Z,19.80
2018-12-11T20:16:34.877Z,19.90
2018-12-11T20:19:05.298Z,19.90
2018-12-11T20:21:34.896Z,20.00
2018-12-11T20:24:05.024Z,20.00
2018-12-11T20:26:39.444Z,20.00
2018-12-11T20:29:09.414Z,20.00
2018-12-11T20:31:38.948Z,20.10
2018-12-11T20:34:10.205Z,20.10
2018-12-11T20:36:39.647Z,20.10
2018-12-11T20:39:09.220Z,20.00
2018-12-11T20:41:40.504Z,20.00
2018-12-11T20:44:10.234Z,20.10
2018-12-11T20:46:39.894Z,20.10
2018-12-11T20:49:09.681Z,20.10
2018-12-11T20:51:39.768Z,20.10
2018-12-11T20:54:09.400Z,20.20
2018-12-11T20:56:39.203Z,20.20
2018-12-11T20:59:09.055Z,20.20
2018-12-11T21:01:39.083Z,19.90
2018-12-11T21:04:09.560Z,19.90
2018-12-11T21:06:40.021Z,19.90
2018-12-11T21:09:15.306Z,20.00
2018-12-11T21:11:44.936Z,20.00
2018-12-11T21:14:14.788Z,20.10
2018-12-11T21:16:44.785Z,20.10
2018-12-11T21:19:15.754Z,20.10
2018-12-11T21:21:45.585Z,20.10
2018-12-11T21:24:15.484Z,20.10
2018-12-11T21:26:45.275Z,20.10
2018-12-11T21:29:15.484Z,20.10
2018-12-11T21:31:46.017Z,20.10
2018-12-11T21:34:15.683Z,20.00
2018-12-11T21:36:45.172Z,19.90
2018-12-11T21:39:17.939Z,19.90
2018-12-11T21:41:49.253Z,19.90
2018-12-11T21:44:20.676Z,19.80
2018-12-11T21:46:50.336Z,19.90
2018-12-11T21:49:19.892Z,19.80
2018-12-11T21:51:49.545Z,19.70
2018-12-11T21:54:20.038Z,19.60
2018-12-11T21:56:49.675Z,19.20
2018-12-11T21:59:19.517Z,18.60
2018-12-11T22:01:49.069Z,18.10
2018-12-11T22:04:19.277Z,17.70
2018-12-11T22:06:49.050Z,17.40
2018-12-11T22:09:18.725Z,17.10
2018-12-11T22:11:48.756Z,17.00
2018-12-11T22:14:22.771Z,16.90
2018-12-11T22:17:00.499Z,16.80
2018-12-11T22:19:29.983Z,16.70
2018-12-11T22:22:00.444Z,16.60
2018-12-11T22:24:33.294Z,16.60
2018-12-11T22:27:03.593Z,16.50
2018-12-11T22:29:33.124Z,16.50
2018-12-11T22:32:03.275Z,16.50
2018-12-11T22:34:38.918Z,16.40
2018-12-11T22:37:08.503Z,16.40
2018-12-11T22:39:42.517Z,16.30
2018-12-11T22:42:12.309Z,16.30
2018-12-11T22:44:47.846Z,16.40
2018-12-11T22:47:17.598Z,16.40
2018-12-11T22:49:51.000Z,16.40
2018-12-11T22:52:20.686Z,16.30
2018-12-11T22:54:50.240Z,16.40
2018-12-11T22:57:19.895Z,16.40
2018-12-11T22:59:49.377Z,16.40
2018-12-11T23:02:19.673Z,16.40
2018-12-11T23:04:50.281Z,16.30
2018-12-11T23:07:19.764Z,16.20
2018-12-11T23:09:54.199Z,16.20
2018-12-11T23:12:23.919Z,16.20
2018-12-11T23:14:53.587Z,16.30
2018-12-11T23:24:09.804Z,16.20
2018-12-11T23:26:39.357Z,16.20
2018-12-11T23:29:10.503Z,16.30
2018-12-11T23:31:40.282Z,16.30
2018-12-11T23:34:11.402Z,16.30
2018-12-11T23:36:41.243Z,16.30
2018-12-11T23:39:10.827Z,16.30
2018-12-11T23:41:40.837Z,16.30
2018-12-11T23:44:17.108Z,16.30
2018-12-11T23:46:46.819Z,16.30
2018-12-11T23:49:16.356Z,16.30
2018-12-11T23:51:46.347Z,16.30
2018-12-11T23:54:15.900Z,16.30
2018-12-11T23:56:45.700Z,16.20
2018-12-11T23:59:15.290Z,16.30
